Time;durP1;ratioP1;P1;durP2;ratioP2;P2;SDS_P1;SDS_P2;PMS_P1;PMS_P2;Temp;Humidity;BMP_temperature;BMP_pressure;BME280_temperature;BME280_humidity;BME280_pressure;Samples;Min_cycle;Max_cycle;Signal;HPM_P1;HPM_P2
2023/12/04 00:02:02;;;;;;;21.33;8.27;;;;;;;-10.15;100.00;93889.06;5048579;28;20405;-68
2023/12/04 00:04:29;;;;;;;23.65;8.70;;;;;;;-10.13;100.00;93883.50;5048247;28;20041;-68
2023/12/04 00:06:56;;;;;;;26.40;9.48;;;;;;;-10.07;100.00;93879.69;5049149;28;20486;-68
2023/12/04 00:09:24;;;;;;;29.05;11.00;;;;;;;-10.09;100.00;93885.28;5048306;28;20440;-67
2023/12/04 00:11:52;;;;;;;20.80;8.13;;;;;;;-10.06;100.00;93881.25;5048847;28;20406;-68
2023/12/04 00:14:19;;;;;;;22.92;8.63;;;;;;;-10.15;100.00;93883.00;5048813;28;20098;-68
2023/12/04 00:16:45;;;;;;;26.52;9.68;;;;;;;-10.16;100.00;93882.22;5048820;28;20371;-68
2023/12/04 00:19:12;;;;;;;33.22;11.65;;;;;;;-10.14;100.00;93880.06;5048629;28;20064;-68
2023/12/04 00:21:39;;;;;;;35.03;11.88;;;;;;;-10.16;100.00;93882.22;5047121;28;20090;-68
2023/12/04 00:24:06;;;;;;;31.25;11.25;;;;;;;-10.12;100.00;93871.78;5048848;28;20037;-68
2023/12/04 00:26:33;;;;;;;29.10;9.90;;;;;;;-10.22;100.00;93869.28;5048405;28;20071;-68
2023/12/04 00:28:59;;;;;;;28.60;11.18;;;;;;;-10.17;100.00;93861.25;5047564;28;20037;-68
2023/12/04 00:31:28;;;;;;;28.17;9.85;;;;;;;-10.16;100.00;93857.50;5048219;28;20049;-67
2023/12/04 00:33:55;;;;;;;27.08;9.52;;;;;;;-10.18;100.00;93857.00;5048447;28;20052;-68
2023/12/04 00:36:22;;;;;;;30.88;10.90;;;;;;;-10.24;100.00;93845.69;5049048;28;20052;-68
2023/12/04 00:38:48;;;;;;;26.30;9.77;;;;;;;-10.32;100.00;93836.56;5047544;28;21559;-68
2023/12/04 00:41:15;;;;;;;27.13;10.52;;;;;;;-10.39;100.00;93837.97;5047607;28;20045;-68
2023/12/04 00:43:42;;;;;;;31.35;11.07;;;;;;;-10.54;100.00;93834.47;5047040;28;20053;-68
2023/12/04 00:46:09;;;;;;;28.23;10.23;;;;;;;-10.75;100.00;93833.13;5048935;28;20652;-68
2023/12/04 00:48:36;;;;;;;51.70;15.90;;;;;;;-10.54;100.00;93826.50;5052094;28;20040;-68
2023/12/04 00:51:03;;;;;;;27.70;9.40;;;;;;;-10.48;100.00;93822.69;5052501;28;20063;-68
2023/12/04 00:53:30;;;;;;;27.35;9.60;;;;;;;-10.42;100.00;93819.97;5050214;28;20110;-68
2023/12/04 00:55:57;;;;;;;28.23;9.45;;;;;;;-10.62;100.00;93813.06;5052438;28;20037;-68
2023/12/04 00:58:24;;;;;;;25.67;9.63;;;;;;;-10.70;100.00;93809.22;5052075;28;20413;-67
2023/12/04 01:00:52;;;;;;;25.85;9.05;;;;;;;-10.52;100.00;93815.59;5052031;28;20049;-68
2023/12/04 01:03:19;;;;;;;25.70;9.13;;;;;;;-10.42;100.00;93820.78;5050943;28;20037;-68
2023/12/04 01:05:46;;;;;;;24.73;9.25;;;;;;;-10.42;100.00;93812.81;5052248;28;20067;-68
2023/12/04 01:08:12;;;;;;;31.30;11.13;;;;;;;-10.68;100.00;93817.69;5051927;28;20051;-68
2023/12/04 01:10:39;;;;;;;26.45;10.25;;;;;;;-10.52;100.00;93821.69;5050352;28;20045;-68
2023/12/04 01:13:06;;;;;;;28.52;10.73;;;;;;;-10.34;100.00;93824.63;5052124;28;20105;-68
2023/12/04 01:15:33;;;;;;;24.58;9.60;;;;;;;-10.27;100.00;93807.25;5051441;28;20033;-68
2023/12/04 01:18:03;;;;;;;28.27;9.52;;;;;;;-10.17;100.00;93821.44;5050870;28;20037;-68
2023/12/04 01:20:30;;;;;;;26.02;9.50;;;;;;;-10.29;100.00;93808.63;5051221;28;20040;-67
2023/12/04 01:22:56;;;;;;;25.70;8.57;;;;;;;-10.24;100.00;93819.16;5051563;28;20657;-68
2023/12/04 01:25:23;;;;;;;24.92;9.15;;;;;;;-10.26;100.00;93810.69;5051439;28;20053;-66
2023/12/04 01:27:50;;;;;;;23.92;8.80;;;;;;;-10.30;100.00;93812.38;5051799;28;20098;-68
2023/12/04 01:30:17;;;;;;;21.35;8.35;;;;;;;-10.23;100.00;93812.78;5051439;28;20032;-68
2023/12/04 01:32:44;;;;;;;33.67;11.43;;;;;;;-10.21;100.00;93809.84;5051168;28;20401;-68
2023/12/04 01:35:10;;;;;;;29.02;9.82;;;;;;;-10.36;100.00;93816.16;5051716;28;20551;-68
2023/12/04 01:37:38;;;;;;;18.15;7.82;;;;;;;-10.50;100.00;93814.25;5049708;28;20049;-68
2023/12/04 01:40:06;;;;;;;23.83;9.15;;;;;;;-10.68;100.00;93807.84;5050594;28;20393;-68
2023/12/04 01:42:33;;;;;;;21.70;8.23;;;;;;;-10.84;100.00;93803.81;5051010;28;20071;-68
2023/12/04 01:45:00;;;;;;;24.55;9.35;;;;;;;-11.00;100.00;93811.16;5051541;28;20494;-68
2023/12/04 01:47:28;;;;;;;24.77;9.70;;;;;;;-10.71;100.00;93799.66;5036930;28;20098;-67
2023/12/04 01:49:55;;;;;;;27.67;9.80;;;;;;;-10.80;100.00;93804.81;5049917;28;20514;-68
2023/12/04 01:52:22;;;;;;;30.55;10.38;;;;;;;-10.57;100.00;93797.09;5049549;28;20047;-63
2023/12/04 01:54:50;;;;;;;36.15;12.60;;;;;;;-10.46;100.00;93801.22;5050659;28;20059;-68
2023/12/04 01:57:17;;;;;;;28.13;10.48;;;;;;;-10.48;100.00;93793.53;5051299;28;20037;-68
2023/12/04 01:59:45;;;;;;;22.80;8.55;;;;;;;-10.42;100.00;93790.78;5049609;28;20044;-68
2023/12/04 02:02:12;;;;;;;17.98;7.28;;;;;;;-10.63;100.00;93785.00;5051237;28;20395;-68
2023/12/04 02:04:39;;;;;;;20.80;7.82;;;;;;;-10.77;100.00;93787.56;5050744;28;20045;-68
2023/12/04 02:07:05;;;;;;;22.23;8.30;;;;;;;-10.67;100.00;93784.78;5051051;28;20663;-68
2023/12/04 02:09:32;;;;;;;21.27;8.30;;;;;;;-10.53;100.00;93780.31;5049249;28;20051;-68
2023/12/04 02:12:00;;;;;;;23.80;8.10;;;;;;;-10.52;100.00;93781.91;5050780;28;20397;-68
2023/12/04 02:14:26;;;;;;;24.50;8.90;;;;;;;-10.60;100.00;93769.31;5049622;28;20040;-68
2023/12/04 02:16:55;;;;;;;19.55;8.10;;;;;;;-10.65;100.00;93772.00;5050837;28;20041;-68
2023/12/04 02:19:22;;;;;;;25.58;8.85;;;;;;;-10.78;100.00;93781.47;5051194;28;20482;-68
2023/12/04 02:21:49;;;;;;;21.20;8.63;;;;;;;-11.12;100.00;93768.38;5049541;28;20926;-68
2023/12/04 02:24:16;;;;;;;28.17;10.07;;;;;;;-11.09;100.00;93757.22;5049537;28;20758;-68
2023/12/04 02:26:50;;;;;;;29.20;10.45;;;;;;;-10.85;100.00;93751.88;5050093;28;20045;-68
2023/12/04 02:29:29;;;;;;;26.40;9.10;;;;;;;-10.69;100.00;93755.09;5050706;28;20049;-68
2023/12/04 02:31:57;;;;;;;23.13;8.55;;;;;;;-10.61;100.00;93754.47;5048212;28;20815;-68
2023/12/04 02:34:25;;;;;;;30.42;11.07;;;;;;;-10.92;100.00;93749.56;5050182;28;20482;-67
2023/12/04 02:36:53;;;;;;;27.65;9.63;;;;;;;-10.91;100.00;93745.84;5049190;28;20053;-68
2023/12/04 02:39:21;;;;;;;23.05;8.50;;;;;;;-10.93;100.00;93758.59;5050761;28;20045;-68
2023/12/04 02:41:48;;;;;;;28.48;10.30;;;;;;;-11.08;100.00;93746.34;5049396;28;20488;-68
2023/12/04 02:44:15;;;;;;;28.02;10.25;;;;;;;-10.98;100.00;93748.06;5050210;28;20037;-68
2023/12/04 02:46:42;;;;;;;28.70;9.25;;;;;;;-10.96;100.00;93737.97;5049328;28;20049;-68
2023/12/04 02:49:09;;;;;;;26.55;9.13;;;;;;;-11.05;100.00;93729.84;5050241;28;20452;-68
2023/12/04 02:51:36;;;;;;;26.65;9.73;;;;;;;-11.00;100.00;93736.19;5048320;28;20479;-68
2023/12/04 02:54:03;;;;;;;23.52;9.25;;;;;;;-11.00;100.00;93736.97;5050199;28;20427;-68
2023/12/04 02:56:30;;;;;;;28.40;10.02;;;;;;;-10.88;100.00;93726.72;5049274;28;20119;-68
2023/12/04 02:58:56;;;;;;;26.40;9.38;;;;;;;-10.90;100.00;93720.94;5050243;28;20040;-68
2023/12/04 03:01:23;;;;;;;27.08;9.73;;;;;;;-11.03;100.00;93710.25;5049386;28;20056;-67
2023/12/04 03:03:50;;;;;;;25.15;9.70;;;;;;;-10.81;100.00;93713.13;5048781;28;20044;-68
2023/12/04 03:06:17;;;;;;;23.88;8.65;;;;;;;-10.57;100.00;93702.41;5049947;28;20406;-68
2023/12/04 03:08:44;;;;;;;24.35;9.63;;;;;;;-10.42;100.00;93697.94;5049629;28;20382;-68
2023/12/04 03:11:10;;;;;;;24.45;8.98;;;;;;;-10.52;100.00;93697.06;5049492;28;20036;-68
2023/12/04 03:13:38;;;;;;;20.50;8.10;;;;;;;-10.73;100.00;93685.16;5049364;28;20432;-68
2023/12/04 03:16:05;;;;;;;15.93;6.75;;;;;;;-10.83;100.00;93694.06;5048575;28;20044;-68
2023/12/04 03:18:32;;;;;;;24.60;8.80;;;;;;;-10.77;100.00;93700.06;5049315;28;20123;-68
2023/12/04 03:20:59;;;;;;;20.13;7.78;;;;;;;-10.60;100.00;93695.06;5048207;28;20090;-68
2023/12/04 03:23:25;;;;;;;25.27;8.60;;;;;;;-10.46;100.00;93692.47;5049299;28;20493;-68
2023/12/04 03:25:52;;;;;;;28.45;9.50;;;;;;;-10.34;100.00;93686.69;5049582;28;20055;-68
2023/12/04 03:28:19;;;;;;;19.08;7.38;;;;;;;-10.16;100.00;93679.72;5049771;28;20061;-68
2023/12/04 03:30:45;;;;;;;21.55;7.82;;;;;;;-10.13;100.00;93685.25;5048729;28;20041;-68
2023/12/04 03:33:12;;;;;;;21.58;8.00;;;;;;;-10.08;100.00;93682.50;5049242;28;20045;-68
2023/12/04 03:35:39;;;;;;;22.92;8.43;;;;;;;-10.09;100.00;93691.53;5048705;28;20045;-68
2023/12/04 03:38:06;;;;;;;21.13;7.65;;;;;;;-10.02;100.00;93690.38;5049607;28;20401;-68
2023/12/04 03:40:33;;;;;;;19.17;7.20;;;;;;;-9.97;100.00;93693.72;5047727;28;20041;-68
2023/12/04 03:42:59;;;;;;;21.55;8.45;;;;;;;-9.96;100.00;93692.66;5049221;28;20053;-68
2023/12/04 03:45:27;;;;;;;20.13;6.82;;;;;;;-9.74;100.00;93693.84;5049086;28;20616;-68
2023/12/04 03:47:54;;;;;;;20.98;7.63;;;;;;;-9.56;100.00;93692.19;5047836;28;20049;-68
2023/12/04 03:50:20;;;;;;;24.25;8.60;;;;;;;-9.43;100.00;93690.63;5049336;28;20123;-69
2023/12/04 03:52:47;;;;;;;19.83;7.63;;;;;;;-9.26;100.00;93688.94;5047757;28;20041;-68
2023/12/04 03:55:14;;;;;;;19.45;7.47;;;;;;;-9.19;100.00;93677.91;5049413;28;20049;-68
2023/12/04 03:57:41;;;;;;;20.20;7.53;;;;;;;-9.09;100.00;93682.25;5048218;28;20121;-68
2023/12/04 04:00:09;;;;;;;20.70;8.00;;;;;;;-8.95;100.00;93684.84;5048984;28;20464;-68
2023/12/04 04:02:37;;;;;;;17.50;7.03;;;;;;;-8.86;100.00;93673.22;5048412;28;20053;-68
2023/12/04 04:05:04;;;;;;;17.92;6.13;;;;;;;-8.85;100.00;93672.13;5049264;28;20037;-68
2023/12/04 04:07:31;;;;;;;20.70;8.60;;;;;;;-8.97;100.00;93668.41;5048433;28;20051;-68
2023/12/04 04:09:58;;;;;;;20.38;7.07;;;;;;;-9.16;100.00;93663.25;5049191;28;20401;-68
2023/12/04 04:12:24;;;;;;;22.63;8.43;;;;;;;-9.24;100.00;93673.47;5048266;28;20045;-67
2023/12/04 04:14:51;;;;;;;23.45;8.68;;;;;;;-9.20;100.00;93664.91;5048766;28;20411;-68
2023/12/04 04:17:18;;;;;;;23.38;8.27;;;;;;;-9.19;100.00;93664.63;5048735;28;20401;-68
2023/12/04 04:19:45;;;;;;;21.25;7.95;;;;;;;-9.19;100.00;93658.50;5047902;28;20047;-68
2023/12/04 04:22:12;;;;;;;25.05;8.85;;;;;;;-9.07;100.00;93659.59;5050764;28;20044;-68
2023/12/04 04:24:38;;;;;;;19.60;7.65;;;;;;;-9.12;100.00;93658.91;5051129;28;20044;-68
2023/12/04 04:27:05;;;;;;;17.50;6.68;;;;;;;-9.18;100.00;93655.56;5052863;28;20037;-68
2023/12/04 04:29:32;;;;;;;16.83;6.65;;;;;;;-9.22;100.00;93657.25;5052469;28;20121;-68
2023/12/04 04:31:59;;;;;;;19.10;7.00;;;;;;;-9.33;100.00;93650.56;5052863;28;20049;-68
2023/12/04 04:34:25;;;;;;;21.88;8.10;;;;;;;-9.32;100.00;93644.16;5052088;28;20045;-68
2023/12/04 04:36:53;;;;;;;20.85;7.82;;;;;;;-9.22;100.00;93649.25;5052996;28;20094;-68
2023/12/04 04:39:20;;;;;;;22.52;8.63;;;;;;;-9.18;100.00;93654.78;5052656;28;20041;-68
2023/12/04 04:41:46;;;;;;;20.10;7.35;;;;;;;-9.39;100.00;93649.13;5050697;28;20642;-68
2023/12/04 04:44:13;;;;;;;16.30;6.68;;;;;;;-9.56;100.00;93655.00;5052403;28;20041;-68
2023/12/04 04:46:40;;;;;;;18.60;7.18;;;;;;;-9.87;100.00;93655.59;5051896;28;20554;-68
2023/12/04 04:49:06;;;;;;;24.80;8.10;;;;;;;-10.07;100.00;93652.22;5052471;28;20047;-68
2023/12/04 04:51:34;;;;;;;25.05;9.07;;;;;;;-9.99;100.00;93648.13;5051913;28;20150;-68
2023/12/04 04:54:01;;;;;;;18.58;7.68;;;;;;;-10.01;100.00;93644.97;5052204;28;20485;-68
2023/12/04 04:56:29;;;;;;;16.23;6.60;;;;;;;-10.05;100.00;93641.31;5051965;28;20051;-67
2023/12/04 04:58:56;;;;;;;28.83;10.10;;;;;;;-10.03;100.00;93646.34;5051287;28;20162;-68
2023/12/04 05:01:23;;;;;;;21.42;8.23;;;;;;;-10.06;100.00;93639.72;5051667;28;20067;-68
2023/12/04 05:03:51;;;;;;;21.92;7.38;;;;;;;-9.94;100.00;93629.44;5050858;28;20106;-68
2023/12/04 05:06:18;;;;;;;22.70;8.98;;;;;;;-9.76;100.00;93624.31;5051931;28;20041;-68
2023/12/04 05:08:44;;;;;;;23.67;8.65;;;;;;;-9.57;100.00;93625.00;5051803;28;20040;-68
2023/12/04 05:11:14;;;;;;;22.75;8.18;;;;;;;-9.44;100.00;93626.06;5052011;28;20052;-68
2023/12/04 05:13:41;;;;;;;21.00;7.95;;;;;;;-9.40;100.00;93626.28;5051714;28;20409;-68
2023/12/04 05:16:08;;;;;;;15.07;6.50;;;;;;;-9.45;100.00;93624.50;5052184;28;20044;-68
2023/12/04 05:18:35;;;;;;;19.15;6.57;;;;;;;-9.46;100.00;93629.00;5038355;28;20040;-68
2023/12/04 05:21:02;;;;;;;20.35;6.70;;;;;;;-9.50;100.00;93625.38;5050311;28;20418;-68
2023/12/04 05:23:29;;;;;;;19.38;8.05;;;;;;;-9.45;100.00;93625.28;5051159;28;20549;-68
2023/12/04 05:25:56;;;;;;;17.42;6.20;;;;;;;-9.59;100.00;93629.06;5051822;28;20048;-68
2023/12/04 05:28:22;;;;;;;17.35;6.65;;;;;;;-9.62;100.00;93626.97;5050146;28;20041;-67
2023/12/04 05:30:49;;;;;;;16.40;6.30;;;;;;;-9.76;100.00;93624.31;5051319;28;20436;-68
2023/12/04 05:33:16;;;;;;;19.90;7.47;;;;;;;-9.70;100.00;93618.63;5051332;28;20504;-68
2023/12/04 05:35:43;;;;;;;17.02;6.25;;;;;;;-9.79;100.00;93623.06;5050968;28;20075;-68
2023/12/04 05:38:10;;;;;;;16.73;6.57;;;;;;;-9.72;100.00;93623.44;5050205;28;20039;-68
2023/12/04 05:40:36;;;;;;;16.05;5.68;;;;;;;-9.61;100.00;93623.25;5049579;28;20041;-68
2023/12/04 05:43:03;;;;;;;20.33;7.72;;;;;;;-9.68;100.00;93620.97;5051154;28;20053;-68
2023/12/04 05:45:30;;;;;;;21.55;7.18;;;;;;;-9.66;100.00;93614.31;5049272;28;20676;-68
2023/12/04 05:47:57;;;;;;;18.17;6.68;;;;;;;-9.63;100.00;93618.22;5050902;28;20044;-67
2023/12/04 05:50:24;;;;;;;20.00;7.65;;;;;;;-9.52;100.00;93608.19;5051099;28;20043;-66
2023/12/04 05:52:51;;;;;;;19.63;7.50;;;;;;;-9.39;100.00;93606.59;5051143;28;20045;-65
2023/12/04 05:55:18;;;;;;;21.67;7.80;;;;;;;-9.33;100.00;93611.50;5051199;28;20041;-65
2023/12/04 05:57:44;;;;;;;28.77;8.52;;;;;;;-9.36;100.00;93613.97;5050290;28;20045;-64
2023/12/04 06:00:12;;;;;;;27.55;8.98;;;;;;;-9.28;100.00;93603.41;5050121;28;20055;-64
2023/12/04 06:02:41;;;;;;;31.42;11.45;;;;;;;-9.00;100.00;93607.88;5048096;28;20041;-65
2023/12/04 06:05:08;;;;;;;18.80;7.25;;;;;;;-9.16;100.00;93594.91;5050856;28;20138;-65
2023/12/04 06:07:38;;;;;;;22.13;8.15;;;;;;;-9.35;100.00;93597.72;5050141;28;20130;-65
2023/12/04 06:10:05;;;;;;;25.90;9.60;;;;;;;-9.24;100.00;93595.63;5050808;28;20041;-65
2023/12/04 06:12:33;;;;;;;24.05;9.02;;;;;;;-9.23;100.00;93597.22;5048701;28;20053;-65
2023/12/04 06:15:00;;;;;;;337.38;64.35;;;;;;;-9.32;100.00;93601.66;5048504;28;20041;-67
2023/12/04 06:17:27;;;;;;;369.23;71.30;;;;;;;-9.42;100.00;93593.91;5050458;28;20448;-64
2023/12/04 06:19:54;;;;;;;53.22;19.08;;;;;;;-9.43;100.00;93585.16;5050373;28;20056;-67
2023/12/04 06:22:21;;;;;;;36.58;14.50;;;;;;;-9.50;100.00;93582.88;5050055;28;20061;-67
2023/12/04 06:24:49;;;;;;;38.42;13.93;;;;;;;-9.40;100.00;93576.56;5050048;28;20040;-67
2023/12/04 06:27:19;;;;;;;22.45;9.32;;;;;;;-9.34;100.00;93563.97;5050652;28;20033;-67
2023/12/04 06:29:48;;;;;;;22.90;8.52;;;;;;;-9.16;100.00;93552.38;4951525;28;20110;-67
2023/12/04 06:32:19;;;;;;;27.80;10.07;;;;;;;-9.25;100.00;93547.00;5039575;28;20406;-67
2023/12/04 06:34:46;;;;;;;32.45;11.48;;;;;;;-9.28;100.00;93566.19;5045683;28;20063;-67
2023/12/04 06:37:14;;;;;;;29.10;10.38;;;;;;;-9.24;100.00;93556.53;5050401;28;20051;-67
2023/12/04 06:39:41;;;;;;;24.13;10.02;;;;;;;-9.46;100.00;93551.19;5049671;28;20122;-68
2023/12/04 06:42:10;;;;;;;29.65;10.18;;;;;;;-9.44;100.00;93551.69;5050106;28;20052;-67
2023/12/04 06:44:37;;;;;;;24.75;9.55;;;;;;;-9.30;100.00;93547.13;5048708;28;20055;-68
2023/12/04 06:47:07;;;;;;;23.67;8.88;;;;;;;-9.19;100.00;93549.53;5050484;28;20371;-67
2023/12/04 06:49:34;;;;;;;26.92;10.48;;;;;;;-8.94;100.00;93529.56;5049097;28;20063;-70
2023/12/04 06:52:01;;;;;;;28.08;11.05;;;;;;;-8.77;100.00;93528.88;5049391;28;20555;-69
2023/12/04 06:54:28;;;;;;;24.00;9.05;;;;;;;-8.71;100.00;93506.38;5049459;28;20571;-68
2023/12/04 06:56:55;;;;;;;25.50;10.23;;;;;;;-8.74;100.00;93537.03;5040978;28;20497;-68
2023/12/04 06:59:21;;;;;;;24.00;8.65;;;;;;;-8.84;100.00;93546.06;5048281;28;20037;-68
2023/12/04 07:01:48;;;;;;;28.83;10.88;;;;;;;-8.96;100.00;93537.06;5049373;28;20049;-68
2023/12/04 07:04:20;;;;;;;21.30;9.15;;;;;;;-9.29;100.00;93532.75;5049946;28;20404;-68
2023/12/04 07:06:48;;;;;;;24.58;9.40;;;;;;;-9.32;100.00;93516.63;5049686;28;20049;-68
2023/12/04 07:09:16;;;;;;;25.98;9.65;;;;;;;-9.05;100.00;93540.44;5048478;28;20052;-68
2023/12/04 07:11:44;;;;;;;26.15;9.65;;;;;;;-9.06;100.00;93552.16;5047993;28;20048;-68
2023/12/04 07:14:12;;;;;;;23.48;8.63;;;;;;;-9.09;100.00;93528.84;5049533;28;20037;-69
2023/12/04 07:16:42;;;;;;;25.48;9.85;;;;;;;-9.01;100.00;93527.34;5048808;28;20045;-68
2023/12/04 07:19:10;;;;;;;26.50;9.68;;;;;;;-8.80;100.00;93540.13;5049408;28;20045;-68
2023/12/04 07:21:37;;;;;;;22.02;7.90;;;;;;;-8.76;100.00;93554.41;5048914;28;20090;-68
2023/12/04 07:24:04;;;;;;;18.65;7.05;;;;;;;-8.89;100.00;93580.75;5049832;28;20045;-68
2023/12/04 07:26:32;;;;;;;22.88;7.90;;;;;;;-8.61;100.00;93545.25;5048756;28;20047;-68
2023/12/04 07:28:59;;;;;;;19.67;7.40;;;;;;;-8.42;100.00;93571.66;5049475;28;20037;-68
2023/12/04 07:31:26;;;;;;;20.15;7.78;;;;;;;-8.28;100.00;93535.06;5048935;28;20037;-67
2023/12/04 07:33:54;;;;;;;23.33;8.75;;;;;;;-8.05;100.00;93533.91;5049022;28;20043;-68
2023/12/04 07:36:22;;;;;;;13.18;5.78;;;;;;;-7.85;100.00;93545.09;5049013;28;20480;-68
2023/12/04 07:38:49;;;;;;;24.17;8.23;;;;;;;-7.82;100.00;93525.84;5048511;28;21811;-68
2023/12/04 07:41:17;;;;;;;21.67;8.23;;;;;;;-7.74;100.00;93541.06;5049003;28;20037;-68
2023/12/04 07:43:44;;;;;;;22.52;8.57;;;;;;;-7.57;100.00;93526.19;5049037;28;20053;-68
2023/12/04 07:46:14;;;;;;;23.85;9.10;;;;;;;-7.67;100.00;93503.28;5049276;28;20049;-68
2023/12/04 07:48:40;;;;;;;29.52;11.23;;;;;;;-8.09;100.00;93493.03;5048746;28;20040;-68
2023/12/04 07:51:08;;;;;;;27.38;10.20;;;;;;;-7.69;100.00;93497.50;5049531;28;20049;-68
2023/12/04 07:53:35;;;;;;;27.25;10.65;;;;;;;-7.77;100.00;93484.94;5048667;28;20465;-68
2023/12/04 07:56:06;;;;;;;24.05;8.90;;;;;;;-7.79;100.00;93487.13;5046533;28;20362;-69
2023/12/04 07:58:32;;;;;;;24.77;9.13;;;;;;;-7.70;100.00;93478.06;5048684;28;20041;-68
2023/12/04 08:00:59;;;;;;;23.30;9.00;;;;;;;-7.60;100.00;93481.53;5048889;28;20071;-68
2023/12/04 08:03:27;;;;;;;24.20;9.50;;;;;;;-7.50;100.00;93486.56;5048334;28;20387;-68
2023/12/04 08:05:53;;;;;;;23.38;9.77;;;;;;;-7.69;100.00;93490.28;5049181;28;20535;-68
2023/12/04 08:08:21;;;;;;;24.45;9.13;;;;;;;-7.68;100.00;93507.84;5048760;28;20437;-69
2023/12/04 08:10:48;;;;;;;23.00;9.05;;;;;;;-7.30;100.00;93517.16;5047886;28;20703;-68
2023/12/04 08:13:16;;;;;;;19.15;8.00;;;;;;;-7.20;100.00;93513.34;5048543;28;20037;-69
2023/12/04 08:15:44;;;;;;;21.73;8.77;;;;;;;-7.21;100.00;93503.81;5048291;28;20536;-68
2023/12/04 08:18:11;;;;;;;22.20;8.13;;;;;;;-7.34;100.00;93506.31;5048343;28;20051;-68
2023/12/04 08:20:37;;;;;;;24.35;8.65;;;;;;;-7.26;100.00;93499.41;5048361;28;20049;-68
2023/12/04 08:23:07;;;;;;;27.10;10.10;;;;;;;-7.67;100.00;93487.31;5046566;28;20044;-68
2023/12/04 08:25:37;;;;;;;21.10;8.90;;;;;;;-7.24;100.00;93486.56;5047764;28;20041;-68
2023/12/04 08:28:05;;;;;;;23.60;11.00;;;;;;;-7.00;100.00;93483.41;5048318;28;20037;-68
2023/12/04 08:30:31;;;;;;;26.65;11.07;;;;;;;-6.96;100.00;93473.69;5048100;28;20041;-68
2023/12/04 08:32:58;;;;;;;31.17;12.68;;;;;;;-7.21;100.00;93479.81;5048125;28;20453;-68
2023/12/04 08:35:25;;;;;;;26.70;10.50;;;;;;;-7.07;100.00;93462.53;5050671;28;20478;-68
2023/12/04 08:37:52;;;;;;;23.00;9.35;;;;;;;-7.26;100.00;93470.88;5054037;28;20599;-67
2023/12/04 08:40:19;;;;;;;23.92;10.30;;;;;;;-7.14;100.00;93461.44;5048646;28;20041;-68
2023/12/04 08:42:45;;;;;;;25.60;10.40;;;;;;;-7.41;100.00;93473.22;5048361;28;20049;-68
2023/12/04 08:45:12;;;;;;;28.23;10.07;;;;;;;-7.41;100.00;93474.00;5048347;28;20479;-69
2023/12/04 08:47:39;;;;;;;26.45;9.65;;;;;;;-7.44;100.00;93472.75;5046998;28;20041;-68
2023/12/04 08:50:07;;;;;;;23.33;9.50;;;;;;;-6.99;100.00;93481.53;5048438;28;20041;-70
2023/12/04 08:52:33;;;;;;;29.52;10.57;;;;;;;-7.14;100.00;93498.75;5047809;28;20052;-68
2023/12/04 08:55:01;;;;;;;25.70;9.77;;;;;;;-7.29;100.00;93508.03;5047205;28;20047;-68
2023/12/04 08:57:28;;;;;;;22.23;8.50;;;;;;;-6.97;100.00;93508.66;5046301;28;20045;-68
2023/12/04 08:59:55;;;;;;;23.55;9.65;;;;;;;-6.89;100.00;93502.53;5048491;28;20033;-68
2023/12/04 09:02:22;;;;;;;22.05;8.40;;;;;;;-6.81;100.00;93490.28;5048320;28;20398;-68
2023/12/04 09:04:49;;;;;;;21.80;9.15;;;;;;;-6.75;100.00;93494.34;5047474;28;21555;-68
2023/12/04 09:07:16;;;;;;;25.13;9.38;;;;;;;-6.50;100.00;93506.84;5048741;28;20049;-68
2023/12/04 09:09:46;;;;;;;25.48;9.82;;;;;;;-6.31;100.00;93519.81;5051533;28;20041;-68
2023/12/04 09:12:13;;;;;;;19.73;7.30;;;;;;;-6.13;100.00;93517.09;5052041;28;20053;-69
2023/12/04 09:14:40;;;;;;;22.55;8.27;;;;;;;-5.73;100.00;93508.72;5051472;28;20067;-68
2023/12/04 09:17:07;;;;;;;20.70;7.88;;;;;;;-5.30;100.00;93507.66;5052081;28;20037;-68
2023/12/04 09:19:34;;;;;;;31.48;13.32;;;;;;;-5.66;100.00;93493.72;5051415;28;20049;-68
2023/12/04 09:22:01;;;;;;;29.10;12.57;;;;;;;-6.07;100.00;93495.22;5051555;28;20048;-68
2023/12/04 09:24:42;;;;;;;25.55;10.77;;;;;;;-5.30;100.00;93499.63;5051224;28;20406;-68
2023/12/04 09:27:09;;;;;;;27.88;11.38;;;;;;;-5.02;100.00;93489.19;5052072;28;20045;-68
2023/12/04 09:29:36;;;;;;;31.08;13.85;;;;;;;-5.07;100.00;93500.09;5049886;28;20053;-68
2023/12/04 09:32:03;;;;;;;31.17;13.10;;;;;;;-5.60;100.00;93514.94;5050627;28;20037;-68
2023/12/04 09:34:30;;;;;;;25.90;10.90;;;;;;;-6.09;100.00;93515.38;5050910;28;20106;-68
2023/12/04 09:36:57;;;;;;;27.30;10.98;;;;;;;-6.09;100.00;93510.03;5051218;28;20053;-68
2023/12/04 09:39:36;;;;;;;31.77;13.02;;;;;;;-6.17;100.00;93502.81;5051014;28;20056;-68
2023/12/04 09:42:03;;;;;;;25.83;10.40;;;;;;;-5.56;100.00;93502.47;5051151;28;20466;-68
2023/12/04 09:44:30;;;;;;;28.05;10.70;;;;;;;-5.06;100.00;93497.09;5050756;28;20044;-68
2023/12/04 09:46:59;;;;;;;25.77;10.27;;;;;;;-5.14;100.00;93489.13;5051219;28;20037;-68
2023/12/04 09:49:28;;;;;;;23.95;10.13;;;;;;;-5.05;100.00;93487.16;5052554;28;20055;-68
2023/12/04 09:51:58;;;;;;;26.40;10.85;;;;;;;-5.22;100.00;93493.44;5058603;28;20037;-68
2023/12/04 09:54:26;;;;;;;29.40;11.88;;;;;;;-5.63;100.00;93484.28;5050413;28;20504;-68
2023/12/04 09:56:53;;;;;;;31.38;12.10;;;;;;;-5.29;100.00;93477.13;5048683;28;20036;-68
2023/12/04 09:59:25;;;;;;;27.92;10.95;;;;;;;-4.74;100.00;93473.34;5051222;28;20041;-68
2023/12/04 10:01:52;;;;;;;25.90;10.38;;;;;;;-4.31;100.00;93469.44;5050460;28;20265;-68
2023/12/04 10:04:19;;;;;;;28.25;11.00;;;;;;;-4.63;100.00;93454.97;5051253;28;20051;-68
2023/12/04 10:06:49;;;;;;;26.52;11.52;;;;;;;-5.09;100.00;93462.16;5050262;28;20048;-69
2023/12/04 10:09:17;;;;;;;27.00;11.00;;;;;;;-4.86;100.00;93451.91;5051007;28;20051;-68
2023/12/04 10:11:47;;;;;;;25.73;11.07;;;;;;;-4.54;100.00;93452.22;5037707;28;20041;-68
2023/12/04 10:14:16;;;;;;;30.73;12.20;;;;;;;-4.26;100.00;93445.13;5050538;28;20043;-68
2023/12/04 10:16:44;;;;;;;32.10;12.93;;;;;;;-4.02;100.00;93439.00;5050446;28;20053;-69
2023/12/04 10:19:20;;;;;;;35.28;13.35;;;;;;;-4.52;100.00;93432.03;5049900;28;20037;-69
2023/12/04 10:21:49;;;;;;;35.30;13.65;;;;;;;-4.76;100.00;93429.31;5049882;28;20049;-68
2023/12/04 10:24:26;;;;;;;32.35;12.60;;;;;;;-4.39;100.00;93416.75;5050899;28;20060;-68
2023/12/04 10:26:53;;;;;;;27.60;11.85;;;;;;;-4.78;100.00;93402.09;5049913;28;20059;-68
2023/12/04 10:29:20;;;;;;;26.05;10.65;;;;;;;-4.48;100.00;93394.66;5050289;28;20045;-69
2023/12/04 10:31:50;;;;;;;27.90;11.45;;;;;;;-3.91;100.00;93406.38;5049910;28;20043;-68
2023/12/04 10:34:17;;;;;;;27.75;12.07;;;;;;;-3.93;100.00;93408.59;5050418;28;20037;-68
2023/12/04 10:36:46;;;;;;;26.55;11.50;;;;;;;-4.02;100.00;93404.16;5048265;28;20045;-68
2023/12/04 10:39:18;;;;;;;25.73;11.70;;;;;;;-4.23;100.00;93400.78;5050482;28;20040;-68
2023/12/04 10:41:58;;;;;;;32.83;13.10;;;;;;;-4.27;100.00;93400.69;5049830;28;20043;-68
2023/12/04 10:44:25;;;;;;;30.33;12.70;;;;;;;-4.30;100.00;93397.91;5050126;28;20520;-68
2023/12/04 10:46:53;;;;;;;33.22;13.85;;;;;;;-4.10;100.00;93396.22;5048705;28;20048;-68
2023/12/04 10:49:20;;;;;;;32.00;12.63;;;;;;;-4.18;100.00;93384.50;5050464;28;20055;-68
2023/12/04 10:51:47;;;;;;;27.38;12.80;;;;;;;-3.38;100.00;93384.91;5049818;28;20095;-68
2023/12/04 10:54:14;;;;;;;28.30;11.68;;;;;;;-3.08;100.00;93375.44;5049795;28;20037;-68
2023/12/04 10:56:44;;;;;;;22.88;10.68;;;;;;;-2.56;100.00;93375.59;5047879;28;20037;-68
2023/12/04 10:59:15;;;;;;;22.45;9.55;;;;;;;-2.07;100.00;93367.94;5049542;28;20053;-68
2023/12/04 11:01:45;;;;;;;19.98;8.30;;;;;;;-2.11;100.00;93364.41;5035740;28;20068;-68
2023/12/04 11:04:17;;;;;;;26.02;9.57;;;;;;;-1.89;100.00;93368.34;5049633;28;20041;-68
2023/12/04 11:06:50;;;;;;;20.25;8.90;;;;;;;-2.44;100.00;93362.84;5049315;28;20055;-67
2023/12/04 11:09:18;;;;;;;21.55;8.95;;;;;;;-2.35;100.00;93354.63;5049836;28;20045;-68
2023/12/04 11:11:51;;;;;;;21.15;9.23;;;;;;;-2.01;100.00;93336.97;5049441;28;20421;-68
2023/12/04 11:14:22;;;;;;;18.40;8.90;;;;;;;-1.89;100.00;93333.41;5049667;28;20041;-68